Terminal Aerodrome Forecast
Issued by NWS Kansas City/Pleasant Hill, MO

Home | Current Version | Previous Version | Text Only | Print | Product List | Glossary On
Versions: 1 2 3 4 5 6 7 8 9 10 11 12 13 14 15 16 17
000
FTUS43 KEAX 191149
TAFMCI
TAF
KMCI 191149Z 1912/2012 19009KT P6SM FEW250
     FM200800 18009KT P6SM SCT250 WS020/21035KT=

USA.gov is the U.S. government's official web portal to all federal, state and local government web resources and services.